Latest Weather Observations for Sydney - Observatory Hill

IDN60901

Issued at 8:55 pm EST Wednesday 30 July 2014 (issued every 10 minutes, with the page automatically refreshed every 10 minutes)

About weather observations | Map of Sydney area stations | Latest observations for Sydney area | Other Formats
Station Details ID: 066062 Name: SYDNEY (OBSERVATORY HILL) Lat: -33.86 Lon: 151.21 Height: 39.0 m
Data from the previous 72 hours. | See also: Recent months at Sydney - Observatory Hill

* Apparent temperature (App Temp) for Sydney - Observatory Hill is calculated using temperature observations collected at Sydney - Observatory Hill and wind observations collected at Fort Denison, as wind observations are not currently provided for Sydney - Observatory Hill.

Date/Time
EST
Tmp

°C
App
Tmp
°C
Dew
Point
°C
Rel
Hum
%
Delta-T

°C
Wind Press
QNH
hPa
Press
MSL
hPa
Rain
since
9 am
mm
Dir
 
Spd
km/h
Gust
km/h
Spd
kts
Gust
kts
30/08:30pm 16.1 14.0 6.5 53 4.7 - 7 - 4 - 1017.6 - 0.0
30/08:00pm 16.9 14.4 6.4 50 5.1 - 9 - 5 - 1017.6 1017.7 0.0
30/07:30pm 17.7 14.0 6.3 47 5.6 - 15 - 8 - 1017.4 - 0.0
30/07:00pm 18.5 14.7 6.0 44 6.2 - 15 - 8 - 1017.1 1017.2 0.0
30/06:30pm 18.8 14.3 6.0 43 6.3 - 19 - 10 - 1016.8 - 0.0
30/06:00pm 19.0 14.8 5.8 42 6.5 - 17 - 9 - 1016.3 1016.4 0.0
30/05:30pm 19.6 15.1 6.0 41 6.8 - 19 - 10 - 1015.8 - 0.0
30/05:00pm 20.2 15.4 5.8 39 7.1 - 20 - 11 - 1015.4 1015.5 0.0
30/04:30pm 20.9 16.1 5.7 37 7.6 - 20 - 11 - 1015.1 - 0.0
30/04:00pm 21.7 16.7 4.7 33 8.3 - 20 - 11 - 1014.8 1014.8 0.0
30/03:30pm 22.8 17.5 4.8 31 8.9 - 22 - 12 - 1014.6 - 0.0
30/03:00pm 23.3 18.0 5.2 31 9.1 - 22 - 12 - 1014.5 1014.5 0.0
30/02:30pm 23.3 18.3 6.6 34 8.6 - 22 - 12 - 1014.5 - 0.0
30/02:00pm 23.3 17.3 5.2 31 9.1 - 26 - 14 - 1014.5 1014.5 0.0
30/01:30pm 23.6 19.1 6.0 32 9.0 - 19 - 10 - 1014.6 - 0.0
30/01:00pm 23.4 19.6 5.8 32 8.9 - 15 - 8 - 1014.9 1015.0 0.0
30/12:30pm 22.8 19.8 6.1 34 8.5 - 11 - 6 - 1015.7 - 0.0
30/12:00pm 20.9 16.8 6.1 38 7.4 - 17 - 9 - 1016.0 1016.1 0.0
30/11:30am 20.4 16.6 6.0 39 7.2 - 15 - 8 - 1016.5 - 0.0
30/11:00am 19.7 15.1 5.7 40 6.9 - 19 - 10 - 1017.2 1017.3 0.0
30/10:30am 19.1 15.6 5.6 41 6.6 - 13 - 7 - 1017.5 - 0.0
30/10:00am 18.6 14.4 5.8 43 6.3 - 17 - 9 - 1017.4 1017.5 0.0
30/09:30am 17.6 15.7 4.9 43 6.1 - 4 - 2 - 1018.1 - 0.0
30/09:00am 17.3 13.7 4.9 44 5.9 - 13 - 7 - 1017.9 1018.0 0.0
30/08:30am 16.9 11.8 4.3 43 5.9 - 20 - 11 - 1017.5 - 0.0
30/08:00am 15.9 10.8 4.0 45 5.5 - 20 - 11 - 1018.0 1018.1 0.0
30/07:30am 14.6 10.9 4.3 50 4.8 - 13 - 7 - 1017.8 - 0.0
30/07:00am 13.2 9.4 4.1 54 4.1 - 13 - 7 - 1017.5 1017.6 0.0
30/06:30am 13.2 10.6 3.3 51 4.4 - 6 - 3 - 1017.6 - 0.0
30/06:00am 13.9 11.1 3.1 48 4.8 - 7 - 4 - 1017.1 1017.2 0.0
30/05:30am 14.0 12.2 3.2 48 4.9 - 2 - 1 - 1016.6 - 0.0
30/05:00am 14.3 11.1 3.2 47 5.0 - 9 - 5 - 1016.1 1016.2 0.0
30/04:30am 14.1 10.9 3.3 48 4.9 - 9 - 5 - 1015.8 - 0.0
30/04:00am 14.3 9.1 3.7 49 4.8 - 20 - 11 - 1015.4 1015.5 0.0
30/03:30am 14.0 8.8 3.8 50 4.6 - 20 - 11 - 1015.7 - 0.0
30/03:00am 14.0 10.4 3.2 48 4.8 - 11 - 6 - 1015.9 1016.0 0.0
30/02:30am 14.3 10.7 3.2 47 5.0 - 11 - 6 - 1015.7 - 0.0
30/02:00am 14.9 11.0 3.4 46 5.2 - 13 - 7 - 1015.6 1015.7 0.0
30/01:30am 15.2 11.7 3.4 45 5.4 - 11 - 6 - 1015.7 - 0.0
30/01:00am 15.7 12.6 3.5 44 5.6 - 9 - 5 - 1015.8 1015.9 0.0
30/12:30am 15.8 11.9 3.6 44 5.6 - 13 - 7 - 1015.8 - 0.0
30/12:00am 16.0 10.8 3.4 43 5.8 - 20 - 11 - 1015.7 1015.8 0.0
 
Date/Time
EST
Tmp

°C
App
Tmp
°C
Dew
Point
°C
Rel
Hum
%
Delta-T

°C
Wind Press
QNH
hPa
Press
MSL
hPa
Rain
since
9 am
mm
Dir
 
Spd
km/h
Gust
km/h
Spd
kts
Gust
kts
29/11:30pm 16.1 10.1 3.5 43 5.8 - 24 - 13 - 1015.7 - 0.0
29/11:00pm 16.2 10.6 3.6 43 5.8 - 22 - 12 - 1015.8 1015.9 0.0
29/10:30pm 16.4 10.8 3.5 42 5.9 - 22 - 12 - 1015.8 - 0.0
29/10:00pm 16.9 11.6 3.2 40 6.3 - 20 - 11 - 1015.8 1015.9 0.0
29/09:30pm 17.1 11.4 3.1 39 6.4 - 22 - 12 - 1015.8 - 0.0
29/09:00pm 17.0 11.6 2.6 38 6.5 - 20 - 11 - 1016.0 1016.1 0.0
29/08:30pm 17.0 11.8 2.2 37 6.7 - 19 - 10 - 1015.9 - 0.0
29/08:00pm 16.8 11.5 1.7 36 6.7 - 19 - 10 - 1015.8 1015.9 0.0
29/07:30pm 17.5 11.9 1.5 34 7.1 - 20 - 11 - 1015.8 - 0.0
29/07:00pm 18.0 12.7 1.9 34 7.3 - 19 - 10 - 1015.9 1016.0 0.0
29/06:30pm 17.9 13.0 2.2 35 7.1 - 17 - 9 - 1015.7 - 0.0
29/06:00pm 19.0 13.4 1.5 31 7.9 - 20 - 11 - 1015.3 1015.4 0.0
29/05:30pm 19.3 13.5 2.2 32 7.9 - 22 - 12 - 1015.0 - 0.0
29/05:00pm 20.3 15.0 1.7 29 8.5 - 19 - 10 - 1014.4 1014.4 0.0
29/04:30pm 21.0 15.7 1.8 28 8.9 - 19 - 10 - 1014.1 - 0.0
29/04:00pm 21.6 15.6 0.8 25 9.5 - 22 - 12 - 1013.9 1013.9 0.0
29/03:30pm 22.7 16.7 1.1 24 10.0 - 22 - 12 - 1013.5 - 0.0
29/03:00pm 22.9 17.6 2.9 27 9.6 - 20 - 11 - 1013.2 1013.2 0.0
29/02:30pm 22.5 17.1 2.6 27 9.4 - 20 - 11 - 1013.8 - 0.0
29/02:00pm 22.5 16.8 3.1 28 9.3 - 22 - 12 - 1014.0 1014.0 0.0
29/01:30pm 22.2 17.4 4.7 32 8.6 - 19 - 10 - 1014.6 - 0.0
29/01:00pm 20.0 13.4 1.9 30 8.3 - 26 - 14 - 1015.2 1015.3 0.0
29/12:30pm 21.2 15.7 3.9 32 8.3 - 22 - 12 - 1015.1 - 0.0
29/12:00pm 18.8 13.2 3.4 36 7.2 - 22 - 12 - 1015.7 1015.8 0.0
29/11:30am 18.3 11.2 3.4 37 7.0 - 30 - 16 - 1016.3 - 0.0
29/11:00am 17.7 12.6 3.9 40 6.5 - 20 - 11 - 1017.1 1017.2 0.0
29/10:30am 17.1 11.1 3.4 40 6.3 - 24 - 13 - 1017.5 - 0.0
29/10:00am 16.4 12.1 3.5 42 5.9 - 15 - 8 - 1018.0 1018.1 0.0
29/09:30am 15.7 10.7 4.4 47 5.3 - 20 - 11 - 1018.2 - 0.0
29/09:00am 14.9 9.5 4.3 49 4.9 - 22 - 12 - 1017.9 1018.0 0.0
29/08:30am 14.0 9.2 4.6 53 4.4 - 19 - 10 - 1017.8 - 0.0
29/08:00am 13.8 9.3 4.1 52 4.4 - 17 - 9 - 1017.8 1017.9 0.0
29/07:30am 13.7 10.3 3.8 51 4.5 - 11 - 6 - 1018.1 - 0.0
29/07:00am 13.3 9.1 3.9 53 4.3 - 15 - 8 - 1018.1 1018.2 0.0
29/06:30am 13.9 7.9 3.4 49 4.7 - 24 - 13 - 1017.9 - 0.0
29/06:00am 14.2 7.5 3.7 49 4.8 - 28 - 15 - 1017.6 1017.7 0.0
29/05:30am 14.1 8.2 3.8 50 4.7 - 24 - 13 - 1017.5 - 0.0
29/05:00am 13.3 8.7 3.9 53 4.3 - 17 - 9 - 1017.4 1017.5 0.0
29/04:30am 13.3 8.5 4.5 55 4.0 - 19 - 10 - 1017.1 - 0.0
29/04:00am 13.2 8.2 4.6 56 3.9 - 20 - 11 - 1017.2 1017.3 0.0
29/03:30am 13.0 8.6 4.7 57 3.8 - 17 - 9 - 1017.2 - 0.0
29/03:00am 13.1 8.7 4.8 57 3.8 - 17 - 9 - 1017.2 1017.3 0.0
29/02:30am 13.0 11.5 4.9 58 3.7 - 2 - 1 - 1017.4 - 0.0
29/02:00am 12.9 9.0 5.3 60 3.5 - 15 - 8 - 1017.3 1017.4 0.0
29/01:30am 12.7 10.8 4.7 58 3.7 - 4 - 2 - 1017.9 - 0.0
29/01:00am 13.0 10.4 4.4 56 3.9 - 7 - 4 - 1017.8 1017.9 0.0
29/12:30am 13.2 10.9 4.9 57 3.8 - 6 - 3 - 1017.9 - 0.0
29/12:00am 13.1 11.2 5.0 58 3.7 - 4 - 2 - 1018.3 1018.4 0.0
 
Date/Time
EST
Tmp

°C
App
Tmp
°C
Dew
Point
°C
Rel
Hum
%
Delta-T

°C
Wind Press
QNH
hPa
Press
MSL
hPa
Rain
since
9 am
mm
Dir
 
Spd
km/h
Gust
km/h
Spd
kts
Gust
kts
28/11:30pm 13.4 10.2 5.3 58 3.8 - 11 - 6 - 1018.7 - 0.0
28/11:00pm 13.4 10.7 5.6 59 3.7 - 9 - 5 - 1018.9 1019.0 0.0
28/10:30pm 13.0 9.9 5.4 60 3.6 - 11 - 6 - 1019.2 - 0.0
28/10:00pm 13.1 10.4 5.5 60 3.6 - 9 - 5 - 1019.4 1019.5 0.0
28/09:30pm 13.4 10.9 6.5 63 3.3 - 9 - 5 - 1019.3 - 0.0
28/09:00pm 13.8 11.4 5.4 57 3.9 - 7 - 4 - 1019.1 1019.2 0.0
28/08:30pm 14.5 12.7 5.3 54 4.3 - 4 - 2 - 1019.2 - 0.0
28/08:00pm 14.9 13.4 5.1 52 4.6 - 2 - 1 - 1019.1 1019.2 0.0
28/07:30pm 15.5 14.0 4.8 49 5.0 - 2 - 1 - 1019.0 - 0.0
28/07:00pm 15.6 13.1 4.6 48 5.1 - 7 - 4 - 1018.9 1019.0 0.0
28/06:30pm 15.8 13.3 4.8 48 5.2 - 7 - 4 - 1018.9 - 0.0
28/06:00pm 15.2 12.7 4.6 49 4.9 - 7 - 4 - 1018.6 1018.7 0.0
28/05:30pm 15.7 13.2 5.0 49 5.1 - 7 - 4 - 1018.4 - 0.0
28/05:00pm 15.6 14.0 4.3 47 5.3 - 2 - 1 - 1018.2 1018.3 0.0
28/04:30pm 16.5 14.8 4.2 44 5.8 - 2 - 1 - 1018.1 - 0.0
28/04:00pm 17.0 14.5 3.7 41 6.2 - 6 - 3 - 1018.0 1018.1 0.0
28/03:30pm 17.5 14.0 3.4 39 6.5 - 11 - 6 - 1018.1 - 0.0
28/03:00pm 17.4 13.2 4.0 41 6.3 - 15 - 8 - 1018.0 1018.1 0.0
28/02:30pm 17.6 13.1 4.2 41 6.3 - 17 - 9 - 1018.1 - 0.0
28/02:00pm 18.2 13.2 4.4 40 6.6 - 20 - 11 - 1018.2 1018.3 0.0
28/01:30pm 17.6 11.6 3.5 39 6.6 - 24 - 13 - 1018.2 - 0.0
28/01:00pm 18.4 12.2 4.2 39 6.7 - 26 - 14 - 1018.7 1018.8 0.0
28/12:30pm 17.3 11.3 3.2 39 6.5 - 24 - 13 - 1019.4 - 0.0
28/12:00pm 16.5 9.5 3.9 43 5.8 - 30 - 16 - 1019.9 1019.9 0.0
28/11:30am 16.0 8.5 3.4 43 5.8 - 32 - 17 - 1019.9 - 0.0
28/11:00am 15.6 10.5 4.3 47 5.2 - 20 - 11 - 1020.6 1020.6 0.0
28/10:30am 14.8 9.3 4.2 49 4.9 - 22 - 12 - 1020.8 - 0.0
28/10:00am 14.3 9.3 4.6 52 4.5 - 20 - 11 - 1021.1 1021.1 0.0
28/09:30am 13.6 8.6 4.7 55 4.1 - 20 - 11 - 1021.1 - 0.0
28/09:00am 11.9 7.9 4.9 62 3.2 - 15 - 8 - 1021.3 1021.3 0.0
28/08:30am 10.7 7.5 5.3 69 2.5 - 11 - 6 - 1021.1 - 0.0
28/08:00am 10.2 5.8 5.0 70 2.3 - 17 - 9 - 1021.4 1021.4 0.0
28/07:30am 9.3 5.7 4.9 74 2.0 - 13 - 7 - 1021.5 - 0.0
28/07:00am 9.4 5.7 4.6 72 2.1 - 13 - 7 - 1021.7 1021.7 0.0
28/06:30am 9.5 5.1 4.7 72 2.1 - 17 - 9 - 1021.2 - 0.0
28/06:00am 9.5 4.7 4.9 73 2.1 - 19 - 10 - 1020.8 1020.8 0.0
28/05:30am 9.2 4.5 5.2 76 1.8 - 19 - 10 - 1020.4 - 0.0
28/05:00am 9.1 5.1 5.1 76 1.8 - 15 - 8 - 1020.6 1020.6 0.0
28/04:30am 8.9 4.6 5.3 78 1.6 - 17 - 9 - 1020.9 - 0.0
28/04:00am 9.1 5.3 5.7 79 1.5 - 15 - 8 - 1020.9 1020.9 0.0
28/03:30am 9.0 4.8 5.7 80 1.5 - 17 - 9 - 1020.8 - 0.0
28/03:00am 8.9 4.3 5.8 81 1.4 - 19 - 10 - 1021.6 1021.6 0.0
28/02:30am 8.9 4.1 5.6 80 1.5 - 20 - 11 - 1021.5 - 0.0
28/02:00am 9.5 5.4 6.2 80 1.5 - 17 - 9 - 1021.5 1021.5 0.0
28/01:30am 9.9 5.3 5.7 75 1.9 - 19 - 10 - 1021.5 - 0.0
28/01:00am 10.7 6.2 6.3 74 2.0 - 19 - 10 - 1022.0 1022.0 0.0
28/12:30am 10.6 8.7 7.7 82 1.4 - 7 - 4 - 1021.5 - 0.0
28/12:00am 10.3 8.9 5.7 73 2.1 - 2 - 1 - 1021.2 1021.2 0.0
 
Date/Time
EST
Tmp

°C
App
Tmp
°C
Dew
Point
°C
Rel
Hum
%
Delta-T

°C
Wind Press
QNH
hPa
Press
MSL
hPa
Rain
since
9 am
mm
Dir
 
Spd
km/h
Gust
km/h
Spd
kts
Gust
kts
27/11:30pm 10.7 8.9 7.2 79 1.7 - 6 - 3 - 1021.7 - 0.0
27/11:00pm 11.2 8.5 7.5 78 1.8 - 11 - 6 - 1022.1 1022.1 0.0
27/10:30pm 11.7 10.3 7.4 75 2.1 - 4 - 2 - 1022.2 - 0.0
27/10:00pm 12.0 10.1 6.9 71 2.4 - 6 - 3 - 1022.6 1022.6 0.0
27/09:30pm 12.1 10.7 7.4 73 2.3 - 4 - 2 - 1023.0 - 0.0
27/09:00pm 12.1 10.0 8.2 77 1.9 - 9 - 5 - 1023.2 1023.2 0.0

Latest Capital City Observations: Canberra | Sydney | Melbourne | Brisbane | Adelaide | Perth | Hobart | Darwin

Other Formats:

Comma delimited format used in spreadsheet applications
http://www.bom.gov.au/fwo/IDN60901/IDN60901.94768.axf

JavaScript Object Notation format (JSON) in row-major order
http://www.bom.gov.au/fwo/IDN60901/IDN60901.94768.json